sensor_id;sensor_type;location;lat;lon;timestamp;temperature;humidity
5286;DHT22;2665;53.112;7.358;2023-07-29T13:42:43;25.50;1.00
5286;DHT22;2665;53.112;7.358;2023-07-29T13:45:09;25.60;1.00
5286;DHT22;2665;53.112;7.358;2023-07-29T13:47:35;25.80;1.00
5286;DHT22;2665;53.112;7.358;2023-07-29T13:50:00;25.40;1.00
5286;DHT22;2665;53.112;7.358;2023-07-29T13:52:26;25.50;1.00
5286;DHT22;2665;53.112;7.358;2023-07-29T13:54:52;26.20;1.00
5286;DHT22;2665;53.112;7.358;2023-07-29T13:57:17;26.40;1.00
5286;DHT22;2665;53.112;7.358;2023-07-29T13:59:43;26.20;1.00
5286;DHT22;2665;53.112;7.358;2023-07-29T14:02:08;25.80;1.00
5286;DHT22;2665;53.112;7.358;2023-07-29T14:04:34;26.10;1.00
5286;DHT22;2665;53.112;7.358;2023-07-29T14:07:00;25.90;1.00
5286;DHT22;2665;53.112;7.358;2023-07-29T14:09:26;25.30;1.00
5286;DHT22;2665;53.112;7.358;2023-07-29T14:11:54;24.80;1.00
5286;DHT22;2665;53.112;7.358;2023-07-29T14:14:19;24.40;1.00
5286;DHT22;2665;53.112;7.358;2023-07-29T14:16:45;24.10;1.00
5286;DHT22;2665;53.112;7.358;2023-07-29T14:19:11;23.90;1.00
5286;DHT22;2665;53.112;7.358;2023-07-29T14:21:37;24.70;1.00
5286;DHT22;2665;53.112;7.358;2023-07-29T14:24:02;25.20;1.00
5286;DHT22;2665;53.112;7.358;2023-07-29T14:26:28;24.80;1.00
5286;DHT22;2665;53.112;7.358;2023-07-29T14:28:54;24.50;1.00
5286;DHT22;2665;53.112;7.358;2023-07-29T14:55:41;24.30;1.00
5286;DHT22;2665;53.112;7.358;2023-07-29T14:58:07;24.40;1.00
5286;DHT22;2665;53.112;7.358;2023-07-29T15:00:32;24.40;1.00
5286;DHT22;2665;53.112;7.358;2023-07-29T15:02:58;24.70;1.00
5286;DHT22;2665;53.112;7.358;2023-07-29T15:05:24;24.60;1.00
5286;DHT22;2665;53.112;7.358;2023-07-29T15:07:50;24.50;1.00
5286;DHT22;2665;53.112;7.358;2023-07-29T15:10:16;24.50;1.00
5286;DHT22;2665;53.112;7.358;2023-07-29T15:12:42;24.00;1.00
5286;DHT22;2665;53.112;7.358;2023-07-29T15:15:09;23.90;1.00
5286;DHT22;2665;53.112;7.358;2023-07-29T15:17:34;24.70;1.00
5286;DHT22;2665;53.112;7.358;2023-07-29T15:20:01;25.70;1.00
5286;DHT22;2665;53.112;7.358;2023-07-29T15:22:27;26.00;1.00
5286;DHT22;2665;53.112;7.358;2023-07-29T15:24:53;25.70;1.00
5286;DHT22;2665;53.112;7.358;2023-07-29T15:27:18;25.10;1.00
5286;DHT22;2665;53.112;7.358;2023-07-29T15:29:44;25.00;1.00
5286;DHT22;2665;53.112;7.358;2023-07-29T15:32:09;24.70;1.00
5286;DHT22;2665;53.112;7.358;2023-07-29T15:34:35;24.30;1.00
5286;DHT22;2665;53.112;7.358;2023-07-29T15:37:02;24.40;1.00
5286;DHT22;2665;53.112;7.358;2023-07-29T15:39:28;24.60;1.00
5286;DHT22;2665;53.112;7.358;2023-07-29T15:41:54;25.00;1.00
5286;DHT22;2665;53.112;7.358;2023-07-29T15:44:20;24.70;1.00
5286;DHT22;2665;53.112;7.358;2023-07-29T15:46:45;24.00;1.00
5286;DHT22;2665;53.112;7.358;2023-07-29T15:49:11;24.00;1.00
5286;DHT22;2665;53.112;7.358;2023-07-29T15:51:37;23.80;1.00
5286;DHT22;2665;53.112;7.358;2023-07-29T15:54:02;23.30;1.00
5286;DHT22;2665;53.112;7.358;2023-07-29T15:56:28;22.90;1.00
5286;DHT22;2665;53.112;7.358;2023-07-29T16:06:14;23.10;1.00
5286;DHT22;2665;53.112;7.358;2023-07-29T16:08:39;23.50;1.00
5286;DHT22;2665;53.112;7.358;2023-07-29T16:11:06;24.30;1.00
5286;DHT22;2665;53.112;7.358;2023-07-29T16:13:32;25.20;1.00
5286;DHT22;2665;53.112;7.358;2023-07-29T16:15:57;26.10;1.00
5286;DHT22;2665;53.112;7.358;2023-07-29T16:18:24;26.50;1.00
5286;DHT22;2665;53.112;7.358;2023-07-29T16:20:50;26.60;1.00
5286;DHT22;2665;53.112;7.358;2023-07-29T16:23:16;26.70;1.00
5286;DHT22;2665;53.112;7.358;2023-07-29T16:25:42;26.60;1.00
5286;DHT22;2665;53.112;7.358;2023-07-29T16:28:08;26.50;1.00
5286;DHT22;2665;53.112;7.358;2023-07-29T16:30:34;26.40;1.00
5286;DHT22;2665;53.112;7.358;2023-07-29T16:33:01;26.10;1.00
5286;DHT22;2665;53.112;7.358;2023-07-29T16:35:26;26.20;1.00
5286;DHT22;2665;53.112;7.358;2023-07-29T16:37:52;26.30;1.00
5286;DHT22;2665;53.112;7.358;2023-07-29T16:40:18;26.40;1.00
5286;DHT22;2665;53.112;7.358;2023-07-29T16:42:43;26.30;1.00
5286;DHT22;2665;53.112;7.358;2023-07-29T16:45:09;26.10;1.00
5286;DHT22;2665;53.112;7.358;2023-07-29T16:47:35;25.80;1.00
5286;DHT22;2665;53.112;7.358;2023-07-29T16:50:01;25.60;1.00
5286;DHT22;2665;53.112;7.358;2023-07-29T16:52:27;25.50;1.00
5286;DHT22;2665;53.112;7.358;2023-07-29T16:54:52;25.20;1.00
5286;DHT22;2665;53.112;7.358;2023-07-29T16:57:18;25.00;1.00
5286;DHT22;2665;53.112;7.358;2023-07-29T16:59:43;24.80;1.00
5286;DHT22;2665;53.112;7.358;2023-07-29T17:02:09;24.70;1.00
5286;DHT22;2665;53.112;7.358;2023-07-29T17:04:35;24.60;1.00
5286;DHT22;2665;53.112;7.358;2023-07-29T17:07:02;24.60;1.00
5286;DHT22;2665;53.112;7.358;2023-07-29T17:09:28;24.70;1.00
5286;DHT22;2665;53.112;7.358;2023-07-29T17:11:54;24.60;1.00
5286;DHT22;2665;53.112;7.358;2023-07-29T17:14:25;24.30;1.00
5286;DHT22;2665;53.112;7.358;2023-07-29T17:16:50;23.80;1.00
5286;DHT22;2665;53.112;7.358;2023-07-29T17:19:16;23.50;1.00
5286;DHT22;2665;53.112;7.358;2023-07-29T17:21:42;23.20;1.00
5286;DHT22;2665;53.112;7.358;2023-07-29T17:24:07;23.00;1.00
5286;DHT22;2665;53.112;7.358;2023-07-29T17:26:33;22.90;1.00
5286;DHT22;2665;53.112;7.358;2023-07-29T17:28:58;23.00;1.00
5286;DHT22;2665;53.112;7.358;2023-07-29T17:31:24;23.00;1.00
5286;DHT22;2665;53.112;7.358;2023-07-29T17:33:49;23.10;1.00
5286;DHT22;2665;53.112;7.358;2023-07-29T17:36:15;23.40;1.00
5286;DHT22;2665;53.112;7.358;2023-07-29T17:38:41;23.40;1.00
5286;DHT22;2665;53.112;7.358;2023-07-29T17:41:06;23.40;1.00
5286;DHT22;2665;53.112;7.358;2023-07-29T17:43:32;23.50;1.00
5286;DHT22;2665;53.112;7.358;2023-07-29T17:45:58;24.00;1.00
5286;DHT22;2665;53.112;7.358;2023-07-29T17:48:24;24.20;1.00
5286;DHT22;2665;53.112;7.358;2023-07-29T17:50:49;23.80;1.00
5286;DHT22;2665;53.112;7.358;2023-07-29T17:53:15;23.30;1.00
5286;DHT22;2665;53.112;7.358;2023-07-29T17:55:40;23.30;1.00
5286;DHT22;2665;53.112;7.358;2023-07-29T17:58:06;23.70;1.00
5286;DHT22;2665;53.112;7.358;2023-07-29T18:02:58;24.00;1.00
5286;DHT22;2665;53.112;7.358;2023-07-29T18:05:24;24.30;1.00
5286;DHT22;2665;53.112;7.358;2023-07-29T18:07:50;24.60;1.00
5286;DHT22;2665;53.112;7.358;2023-07-29T18:10:15;24.20;1.00
5286;DHT22;2665;53.112;7.358;2023-07-29T18:12:41;24.00;1.00
5286;DHT22;2665;53.112;7.358;2023-07-29T18:15:10;23.80;1.00
5286;DHT22;2665;53.112;7.358;2023-07-29T18:17:36;23.60;1.00
5286;DHT22;2665;53.112;7.358;2023-07-29T18:20:03;23.60;1.00
5286;DHT22;2665;53.112;7.358;2023-07-29T18:22:30;23.60;1.00
5286;DHT22;2665;53.112;7.358;2023-07-29T18:24:56;23.40;1.00
5286;DHT22;2665;53.112;7.358;2023-07-29T18:27:21;23.10;1.00
5286;DHT22;2665;53.112;7.358;2023-07-29T18:29:47;22.70;1.00
5286;DHT22;2665;53.112;7.358;2023-07-29T18:32:13;22.40;1.00
5286;DHT22;2665;53.112;7.358;2023-07-29T18:34:38;22.20;1.00
5286;DHT22;2665;53.112;7.358;2023-07-29T18:37:04;22.10;1.00
5286;DHT22;2665;53.112;7.358;2023-07-29T18:39:30;22.00;1.00
5286;DHT22;2665;53.112;7.358;2023-07-29T18:41:55;22.00;1.00
5286;DHT22;2665;53.112;7.358;2023-07-29T18:44:21;21.90;1.00
5286;DHT22;2665;53.112;7.358;2023-07-29T18:46:46;21.80;1.00
5286;DHT22;2665;53.112;7.358;2023-07-29T18:49:15;21.80;1.00
5286;DHT22;2665;53.112;7.358;2023-07-29T18:51:40;21.70;1.00
5286;DHT22;2665;53.112;7.358;2023-07-29T18:54:06;21.60;1.00
5286;DHT22;2665;53.112;7.358;2023-07-29T18:56:32;21.60;1.00
5286;DHT22;2665;53.112;7.358;2023-07-29T18:58:58;21.50;1.00
5286;DHT22;2665;53.112;7.358;2023-07-29T19:01:23;21.40;1.00
5286;DHT22;2665;53.112;7.358;2023-07-29T19:03:50;21.40;1.00
5286;DHT22;2665;53.112;7.358;2023-07-29T19:06:16;21.30;1.00
